sensor_id;sensor_type;location;lat;lon;timestamp;P1;durP1;ratioP1;P2;durP2;ratioP2
31966;SDS011;18496;52.042;6.812;2022-07-18T00:00:34;6.22;;;2.92;;
31966;SDS011;18496;52.042;6.812;2022-07-18T00:02:38;6.20;;;3.25;;
31966;SDS011;18496;52.042;6.812;2022-07-18T00:04:42;5.20;;;3.00;;
31966;SDS011;18496;52.042;6.812;2022-07-18T00:06:47;5.95;;;2.85;;
31966;SDS011;18496;52.042;6.812;2022-07-18T00:08:50;5.55;;;3.05;;
31966;SDS011;18496;52.042;6.812;2022-07-18T00:10:54;7.18;;;3.70;;
31966;SDS011;18496;52.042;6.812;2022-07-18T00:12:58;5.40;;;3.60;;
31966;SDS011;18496;52.042;6.812;2022-07-18T00:15:02;4.85;;;2.72;;
31966;SDS011;18496;52.042;6.812;2022-07-18T00:17:07;6.45;;;3.60;;
31966;SDS011;18496;52.042;6.812;2022-07-18T00:19:11;7.18;;;3.17;;
31966;SDS011;18496;52.042;6.812;2022-07-18T00:21:15;7.38;;;3.67;;
31966;SDS011;18496;52.042;6.812;2022-07-18T00:23:19;7.10;;;3.92;;
31966;SDS011;18496;52.042;6.812;2022-07-18T00:25:23;7.20;;;3.25;;
31966;SDS011;18496;52.042;6.812;2022-07-18T00:27:27;5.60;;;3.40;;
31966;SDS011;18496;52.042;6.812;2022-07-18T00:29:30;7.55;;;3.60;;
31966;SDS011;18496;52.042;6.812;2022-07-18T00:31:35;10.10;;;3.50;;
31966;SDS011;18496;52.042;6.812;2022-07-18T00:33:39;6.97;;;3.25;;
31966;SDS011;18496;52.042;6.812;2022-07-18T00:35:43;5.78;;;3.50;;
31966;SDS011;18496;52.042;6.812;2022-07-18T00:37:46;6.78;;;3.35;;
31966;SDS011;18496;52.042;6.812;2022-07-18T00:39:50;13.20;;;3.40;;
31966;SDS011;18496;52.042;6.812;2022-07-18T00:41:53;9.40;;;3.72;;
31966;SDS011;18496;52.042;6.812;2022-07-18T00:43:57;7.55;;;3.67;;
31966;SDS011;18496;52.042;6.812;2022-07-18T00:46:01;9.57;;;3.30;;
31966;SDS011;18496;52.042;6.812;2022-07-18T00:48:08;4.70;;;3.05;;
31966;SDS011;18496;52.042;6.812;2022-07-18T00:50:11;8.65;;;3.03;;
31966;SDS011;18496;52.042;6.812;2022-07-18T00:52:15;9.60;;;3.65;;
31966;SDS011;18496;52.042;6.812;2022-07-18T00:54:19;8.68;;;3.00;;
31966;SDS011;18496;52.042;6.812;2022-07-18T00:56:23;6.32;;;3.10;;
31966;SDS011;18496;52.042;6.812;2022-07-18T00:58:26;6.97;;;2.70;;
31966;SDS011;18496;52.042;6.812;2022-07-18T01:00:30;10.30;;;3.33;;
31966;SDS011;18496;52.042;6.812;2022-07-18T01:02:53;8.52;;;2.92;;
31966;SDS011;18496;52.042;6.812;2022-07-18T01:04:56;6.03;;;3.15;;
31966;SDS011;18496;52.042;6.812;2022-07-18T01:07:00;5.72;;;3.22;;
31966;SDS011;18496;52.042;6.812;2022-07-18T01:09:04;6.40;;;3.35;;
31966;SDS011;18496;52.042;6.812;2022-07-18T01:11:08;6.32;;;2.67;;
31966;SDS011;18496;52.042;6.812;2022-07-18T01:13:12;7.90;;;2.53;;
31966;SDS011;18496;52.042;6.812;2022-07-18T01:15:16;5.07;;;2.67;;
31966;SDS011;18496;52.042;6.812;2022-07-18T01:17:19;8.43;;;3.22;;
31966;SDS011;18496;52.042;6.812;2022-07-18T01:19:23;6.35;;;2.60;;
31966;SDS011;18496;52.042;6.812;2022-07-18T01:21:27;6.18;;;3.20;;
31966;SDS011;18496;52.042;6.812;2022-07-18T01:23:30;8.10;;;3.22;;
31966;SDS011;18496;52.042;6.812;2022-07-18T01:25:34;6.15;;;3.13;;
31966;SDS011;18496;52.042;6.812;2022-07-18T01:27:38;5.80;;;3.28;;
31966;SDS011;18496;52.042;6.812;2022-07-18T01:29:42;4.60;;;3.00;;
31966;SDS011;18496;52.042;6.812;2022-07-18T01:31:47;5.97;;;2.67;;
31966;SDS011;18496;52.042;6.812;2022-07-18T01:33:53;7.03;;;3.25;;
31966;SDS011;18496;52.042;6.812;2022-07-18T01:36:01;3.95;;;2.45;;
31966;SDS011;18496;52.042;6.812;2022-07-18T01:38:07;5.00;;;2.58;;
31966;SDS011;18496;52.042;6.812;2022-07-18T01:40:11;6.68;;;2.47;;
31966;SDS011;18496;52.042;6.812;2022-07-18T01:42:15;6.47;;;2.58;;
31966;SDS011;18496;52.042;6.812;2022-07-18T01:44:19;5.47;;;2.47;;
31966;SDS011;18496;52.042;6.812;2022-07-18T01:46:23;8.38;;;2.97;;
31966;SDS011;18496;52.042;6.812;2022-07-18T01:48:26;4.18;;;2.60;;
31966;SDS011;18496;52.042;6.812;2022-07-18T01:50:30;5.32;;;2.40;;
31966;SDS011;18496;52.042;6.812;2022-07-18T01:52:34;3.50;;;2.10;;
31966;SDS011;18496;52.042;6.812;2022-07-18T01:54:38;6.07;;;2.90;;
31966;SDS011;18496;52.042;6.812;2022-07-18T01:56:41;5.90;;;3.17;;
31966;SDS011;18496;52.042;6.812;2022-07-18T01:58:45;5.97;;;2.60;;
31966;SDS011;18496;52.042;6.812;2022-07-18T02:00:49;6.00;;;2.38;;
31966;SDS011;18496;52.042;6.812;2022-07-18T02:02:52;6.72;;;2.25;;
31966;SDS011;18496;52.042;6.812;2022-07-18T02:04:56;6.32;;;2.75;;
31966;SDS011;18496;52.042;6.812;2022-07-18T02:07:02;5.65;;;2.58;;
31966;SDS011;18496;52.042;6.812;2022-07-18T02:09:06;6.25;;;3.10;;
31966;SDS011;18496;52.042;6.812;2022-07-18T02:11:10;7.63;;;2.92;;
31966;SDS011;18496;52.042;6.812;2022-07-18T02:13:14;6.32;;;3.10;;
31966;SDS011;18496;52.042;6.812;2022-07-18T02:15:19;6.47;;;2.92;;
31966;SDS011;18496;52.042;6.812;2022-07-18T02:17:23;7.78;;;2.75;;
31966;SDS011;18496;52.042;6.812;2022-07-18T02:19:27;6.05;;;2.70;;
31966;SDS011;18496;52.042;6.812;2022-07-18T02:21:31;11.32;;;2.85;;
31966;SDS011;18496;52.042;6.812;2022-07-18T02:23:34;4.82;;;2.35;;
31966;SDS011;18496;52.042;6.812;2022-07-18T02:25:38;9.05;;;2.53;;
31966;SDS011;18496;52.042;6.812;2022-07-18T02:27:42;4.63;;;2.50;;
31966;SDS011;18496;52.042;6.812;2022-07-18T02:29:45;5.70;;;1.95;;
31966;SDS011;18496;52.042;6.812;2022-07-18T02:31:51;4.82;;;2.50;;
31966;SDS011;18496;52.042;6.812;2022-07-18T02:33:55;6.70;;;2.70;;
31966;SDS011;18496;52.042;6.812;2022-07-18T02:35:58;4.85;;;2.58;;
31966;SDS011;18496;52.042;6.812;2022-07-18T02:38:02;6.78;;;2.70;;
31966;SDS011;18496;52.042;6.812;2022-07-18T02:40:07;9.68;;;3.25;;
31966;SDS011;18496;52.042;6.812;2022-07-18T02:42:11;19.00;;;2.67;;
31966;SDS011;18496;52.042;6.812;2022-07-18T02:44:15;3.88;;;2.38;;
31966;SDS011;18496;52.042;6.812;2022-07-18T02:46:19;4.53;;;2.35;;
31966;SDS011;18496;52.042;6.812;2022-07-18T02:48:22;9.52;;;2.90;;
31966;SDS011;18496;52.042;6.812;2022-07-18T02:50:26;7.35;;;2.70;;
31966;SDS011;18496;52.042;6.812;2022-07-18T02:52:30;4.15;;;2.63;;
31966;SDS011;18496;52.042;6.812;2022-07-18T02:54:35;4.30;;;2.30;;
31966;SDS011;18496;52.042;6.812;2022-07-18T02:56:39;11.93;;;2.72;;
31966;SDS011;18496;52.042;6.812;2022-07-18T02:58:43;5.47;;;2.40;;
31966;SDS011;18496;52.042;6.812;2022-07-18T03:00:47;7.22;;;3.15;;
31966;SDS011;18496;52.042;6.812;2022-07-18T03:02:51;6.43;;;2.63;;
31966;SDS011;18496;52.042;6.812;2022-07-18T03:04:55;9.25;;;2.50;;
31966;SDS011;18496;52.042;6.812;2022-07-18T03:06:58;3.35;;;2.20;;
31966;SDS011;18496;52.042;6.812;2022-07-18T03:09:03;7.43;;;2.80;;
31966;SDS011;18496;52.042;6.812;2022-07-18T03:11:07;5.78;;;2.83;;
31966;SDS011;18496;52.042;6.812;2022-07-18T03:13:10;5.07;;;2.58;;
31966;SDS011;18496;52.042;6.812;2022-07-18T03:15:15;4.65;;;2.70;;
31966;SDS011;18496;52.042;6.812;2022-07-18T03:17:19;7.03;;;3.08;;
31966;SDS011;18496;52.042;6.812;2022-07-18T03:19:22;12.63;;;2.85;;
31966;SDS011;18496;52.042;6.812;2022-07-18T03:21:26;5.78;;;2.88;;
31966;SDS011;18496;52.042;6.812;2022-07-18T03:23:31;4.22;;;2.30;;
31966;SDS011;18496;52.042;6.812;2022-07-18T03:25:34;7.35;;;2.78;;
31966;SDS011;18496;52.042;6.812;2022-07-18T03:27:38;4.85;;;2.67;;
31966;SDS011;18496;52.042;6.812;2022-07-18T03:29:42;5.28;;;2.83;;
31966;SDS011;18496;52.042;6.812;2022-07-18T03:31:46;4.72;;;2.33;;
31966;SDS011;18496;52.042;6.812;2022-07-18T03:33:49;2.83;;;2.08;;
31966;SDS011;18496;52.042;6.812;2022-07-18T03:35:53;7.13;;;2.70;;
31966;SDS011;18496;52.042;6.812;2022-07-18T03:37:56;4.57;;;2.65;;
31966;SDS011;18496;52.042;6.812;2022-07-18T03:40:00;6.25;;;2.55;;
31966;SDS011;18496;52.042;6.812;2022-07-18T03:42:04;5.72;;;2.78;;
31966;SDS011;18496;52.042;6.812;2022-07-18T03:44:08;11.30;;;2.85;;
31966;SDS011;18496;52.042;6.812;2022-07-18T03:46:11;4.00;;;2.65;;
31966;SDS011;18496;52.042;6.812;2022-07-18T03:48:15;5.93;;;2.78;;
31966;SDS011;18496;52.042;6.812;2022-07-18T03:50:19;4.18;;;2.65;;
31966;SDS011;18496;52.042;6.812;2022-07-18T03:52:22;8.65;;;2.70;;
31966;SDS011;18496;52.042;6.812;2022-07-18T03:54:26;5.53;;;2.33;;
31966;SDS011;18496;52.042;6.812;2022-07-18T03:56:30;9.43;;;2.85;;
31966;SDS011;18496;52.042;6.812;2022-07-18T03:58:33;5.28;;;2.83;;
31966;SDS011;18496;52.042;6.812;2022-07-18T04:00:37;5.50;;;2.95;;
31966;SDS011;18496;52.042;6.812;2022-07-18T04:02:45;7.57;;;2.90;;
31966;SDS011;18496;52.042;6.812;2022-07-18T04:04:50;6.00;;;3.28;;
31966;SDS011;18496;52.042;6.812;2022-07-18T04:06:54;6.75;;;3.20;;
31966;SDS011;18496;52.042;6.812;2022-07-18T04:09:02;5.65;;;2.70;;
31966;SDS011;18496;52.042;6.812;2022-07-18T04:11:06;11.55;;;2.90;;
31966;SDS011;18496;52.042;6.812;2022-07-18T04:13:10;8.50;;;3.03;;
31966;SDS011;18496;52.042;6.812;2022-07-18T04:15:14;3.85;;;2.80;;
31966;SDS011;18496;52.042;6.812;2022-07-18T04:17:18;4.82;;;2.47;;
31966;SDS011;18496;52.042;6.812;2022-07-18T04:19:22;12.80;;;3.13;;
31966;SDS011;18496;52.042;6.812;2022-07-18T04:21:27;5.40;;;2.97;;
31966;SDS011;18496;52.042;6.812;2022-07-18T04:23:31;8.57;;;3.00;;
31966;SDS011;18496;52.042;6.812;2022-07-18T04:25:35;7.97;;;3.10;;
31966;SDS011;18496;52.042;6.812;2022-07-18T04:27:41;6.97;;;2.80;;
31966;SDS011;18496;52.042;6.812;2022-07-18T04:29:45;4.03;;;2.53;;
31966;SDS011;18496;52.042;6.812;2022-07-18T04:31:49;14.48;;;2.63;;
31966;SDS011;18496;52.042;6.812;2022-07-18T04:33:52;8.52;;;2.88;;
31966;SDS011;18496;52.042;6.812;2022-07-18T04:35:56;9.55;;;3.10;;
31966;SDS011;18496;52.042;6.812;2022-07-18T04:37:59;5.53;;;2.75;;
31966;SDS011;18496;52.042;6.812;2022-07-18T04:40:03;6.13;;;2.22;;
31966;SDS011;18496;52.042;6.812;2022-07-18T04:42:08;4.75;;;2.38;;
31966;SDS011;18496;52.042;6.812;2022-07-18T04:44:12;4.70;;;2.05;;
31966;SDS011;18496;52.042;6.812;2022-07-18T04:46:16;5.97;;;2.38;;
31966;SDS011;18496;52.042;6.812;2022-07-18T04:48:19;7.40;;;2.38;;
31966;SDS011;18496;52.042;6.812;2022-07-18T04:50:23;9.65;;;3.00;;
31966;SDS011;18496;52.042;6.812;2022-07-18T04:52:27;6.28;;;2.40;;
31966;SDS011;18496;52.042;6.812;2022-07-18T04:54:42;5.97;;;2.30;;
31966;SDS011;18496;52.042;6.812;2022-07-18T04:56:46;4.53;;;2.10;;
31966;SDS011;18496;52.042;6.812;2022-07-18T04:58:49;8.43;;;2.80;;
31966;SDS011;18496;52.042;6.812;2022-07-18T05:00:53;7.70;;;2.90;;
31966;SDS011;18496;52.042;6.812;2022-07-18T05:02:58;3.90;;;1.98;;
31966;SDS011;18496;52.042;6.812;2022-07-18T05:05:02;6.65;;;3.00;;
31966;SDS011;18496;52.042;6.812;2022-07-18T05:07:06;4.97;;;2.67;;
31966;SDS011;18496;52.042;6.812;2022-07-18T05:09:10;5.68;;;2.60;;
31966;SDS011;18496;52.042;6.812;2022-07-18T05:11:13;8.23;;;2.30;;
31966;SDS011;18496;52.042;6.812;2022-07-18T05:13:17;8.57;;;2.60;;
31966;SDS011;18496;52.042;6.812;2022-07-18T05:15:21;16.15;;;2.15;;
31966;SDS011;18496;52.042;6.812;2022-07-18T05:17:26;7.45;;;2.35;;
31966;SDS011;18496;52.042;6.812;2022-07-18T05:19:29;4.97;;;2.35;;
31966;SDS011;18496;52.042;6.812;2022-07-18T05:21:33;5.53;;;1.92;;
31966;SDS011;18496;52.042;6.812;2022-07-18T05:23:37;11.20;;;2.42;;
31966;SDS011;18496;52.042;6.812;2022-07-18T05:25:40;5.78;;;2.22;;
31966;SDS011;18496;52.042;6.812;2022-07-18T05:27:44;8.50;;;2.88;;
31966;SDS011;18496;52.042;6.812;2022-07-18T05:29:48;10.07;;;2.30;;
31966;SDS011;18496;52.042;6.812;2022-07-18T05:31:51;4.40;;;2.30;;
31966;SDS011;18496;52.042;6.812;2022-07-18T05:33:55;5.97;;;2.67;;
31966;SDS011;18496;52.042;6.812;2022-07-18T05:35:59;8.52;;;2.78;;
31966;SDS011;18496;52.042;6.812;2022-07-18T05:38:02;3.45;;;1.75;;
31966;SDS011;18496;52.042;6.812;2022-07-18T05:40:07;4.88;;;2.50;;
31966;SDS011;18496;52.042;6.812;2022-07-18T05:42:12;5.47;;;2.35;;
31966;SDS011;18496;52.042;6.812;2022-07-18T05:44:16;3.35;;;2.15;;
31966;SDS011;18496;52.042;6.812;2022-07-18T05:46:22;4.47;;;2.40;;
31966;SDS011;18496;52.042;6.812;2022-07-18T05:48:26;5.47;;;2.15;;
31966;SDS011;18496;52.042;6.812;2022-07-18T05:50:30;7.97;;;2.60;;
31966;SDS011;18496;52.042;6.812;2022-07-18T05:52:33;11.48;;;3.22;;
31966;SDS011;18496;52.042;6.812;2022-07-18T05:54:37;5.32;;;2.95;;
31966;SDS011;18496;52.042;6.812;2022-07-18T05:56:41;5.88;;;3.10;;
31966;SDS011;18496;52.042;6.812;2022-07-18T05:58:45;12.10;;;3.50;;
31966;SDS011;18496;52.042;6.812;2022-07-18T06:00:48;4.75;;;2.30;;
31966;SDS011;18496;52.042;6.812;2022-07-18T06:02:52;6.28;;;1.98;;
31966;SDS011;18496;52.042;6.812;2022-07-18T06:04:56;11.48;;;2.30;;
31966;SDS011;18496;52.042;6.812;2022-07-18T06:07:00;7.07;;;1.73;;
31966;SDS011;18496;52.042;6.812;2022-07-18T06:09:04;6.20;;;2.33;;
31966;SDS011;18496;52.042;6.812;2022-07-18T06:11:08;4.72;;;1.90;;
31966;SDS011;18496;52.042;6.812;2022-07-18T06:13:12;7.78;;;2.30;;
31966;SDS011;18496;52.042;6.812;2022-07-18T06:15:16;5.13;;;1.88;;
31966;SDS011;18496;52.042;6.812;2022-07-18T06:17:19;6.60;;;2.30;;
31966;SDS011;18496;52.042;6.812;2022-07-18T06:19:23;5.30;;;2.40;;
31966;SDS011;18496;52.042;6.812;2022-07-18T06:21:28;4.72;;;2.20;;
31966;SDS011;18496;52.042;6.812;2022-07-18T06:23:31;4.80;;;1.83;;
31966;SDS011;18496;52.042;6.812;2022-07-18T06:25:35;3.17;;;2.22;;
31966;SDS011;18496;52.042;6.812;2022-07-18T06:27:39;7.93;;;2.10;;
31966;SDS011;18496;52.042;6.812;2022-07-18T06:29:43;6.88;;;2.47;;
31966;SDS011;18496;52.042;6.812;2022-07-18T06:31:46;5.18;;;2.17;;
31966;SDS011;18496;52.042;6.812;2022-07-18T06:33:50;12.07;;;2.15;;
31966;SDS011;18496;52.042;6.812;2022-07-18T06:35:54;3.47;;;1.90;;
31966;SDS011;18496;52.042;6.812;2022-07-18T06:37:57;6.75;;;2.75;;
31966;SDS011;18496;52.042;6.812;2022-07-18T06:40:01;8.63;;;1.77;;
31966;SDS011;18496;52.042;6.812;2022-07-18T06:42:05;9.55;;;2.17;;
31966;SDS011;18496;52.042;6.812;2022-07-18T06:44:10;3.00;;;1.85;;
31966;SDS011;18496;52.042;6.812;2022-07-18T06:46:14;9.70;;;2.38;;
31966;SDS011;18496;52.042;6.812;2022-07-18T06:48:18;4.82;;;2.00;;
31966;SDS011;18496;52.042;6.812;2022-07-18T06:50:21;11.18;;;2.35;;
31966;SDS011;18496;52.042;6.812;2022-07-18T06:52:25;7.18;;;2.80;;
31966;SDS011;18496;52.042;6.812;2022-07-18T06:54:29;9.88;;;1.90;;
31966;SDS011;18496;52.042;6.812;2022-07-18T06:56:35;8.00;;;1.73;;
31966;SDS011;18496;52.042;6.812;2022-07-18T06:58:39;3.47;;;1.77;;
31966;SDS011;18496;52.042;6.812;2022-07-18T07:00:43;8.50;;;1.77;;
31966;SDS011;18496;52.042;6.812;2022-07-18T07:02:47;4.75;;;1.90;;
31966;SDS011;18496;52.042;6.812;2022-07-18T07:04:52;8.45;;;2.20;;
31966;SDS011;18496;52.042;6.812;2022-07-18T07:06:56;7.68;;;2.20;;
31966;SDS011;18496;52.042;6.812;2022-07-18T07:08:59;4.53;;;1.55;;
31966;SDS011;18496;52.042;6.812;2022-07-18T07:11:03;5.40;;;1.77;;
31966;SDS011;18496;52.042;6.812;2022-07-18T07:13:07;5.30;;;2.00;;
31966;SDS011;18496;52.042;6.812;2022-07-18T07:15:11;6.68;;;1.88;;
31966;SDS011;18496;52.042;6.812;2022-07-18T07:17:15;3.50;;;1.70;;
31966;SDS011;18496;52.042;6.812;2022-07-18T07:19:18;7.80;;;1.63;;
31966;SDS011;18496;52.042;6.812;2022-07-18T07:21:22;3.70;;;1.58;;
31966;SDS011;18496;52.042;6.812;2022-07-18T07:23:26;7.03;;;1.77;;
31966;SDS011;18496;52.042;6.812;2022-07-18T07:25:29;12.23;;;1.55;;
31966;SDS011;18496;52.042;6.812;2022-07-18T07:27:33;2.05;;;1.35;;
31966;SDS011;18496;52.042;6.812;2022-07-18T07:29:37;3.90;;;1.70;;
31966;SDS011;18496;52.042;6.812;2022-07-18T07:31:41;4.00;;;1.77;;
31966;SDS011;18496;52.042;6.812;2022-07-18T07:33:45;2.50;;;1.60;;
31966;SDS011;18496;52.042;6.812;2022-07-18T07:35:49;14.52;;;1.92;;
31966;SDS011;18496;52.042;6.812;2022-07-18T07:37:55;2.30;;;1.35;;
31966;SDS011;18496;52.042;6.812;2022-07-18T07:40:02;5.32;;;1.73;;
31966;SDS011;18496;52.042;6.812;2022-07-18T07:42:06;2.55;;;1.38;;
31966;SDS011;18496;52.042;6.812;2022-07-18T07:44:13;2.60;;;1.50;;
31966;SDS011;18496;52.042;6.812;2022-07-18T07:46:19;6.50;;;1.70;;
31966;SDS011;18496;52.042;6.812;2022-07-18T07:48:23;6.82;;;2.00;;
31966;SDS011;18496;52.042;6.812;2022-07-18T07:50:27;4.35;;;1.58;;
31966;SDS011;18496;52.042;6.812;2022-07-18T07:52:35;5.82;;;1.83;;
31966;SDS011;18496;52.042;6.812;2022-07-18T07:54:40;2.60;;;1.15;;
31966;SDS011;18496;52.042;6.812;2022-07-18T07:56:44;9.95;;;1.65;;
31966;SDS011;18496;52.042;6.812;2022-07-18T07:58:50;7.90;;;2.00;;
31966;SDS011;18496;52.042;6.812;2022-07-18T08:00:54;2.97;;;1.60;;
31966;SDS011;18496;52.042;6.812;2022-07-18T08:02:59;4.35;;;1.70;;
31966;SDS011;18496;52.042;6.812;2022-07-18T08:05:04;3.72;;;1.50;;
31966;SDS011;18496;52.042;6.812;2022-07-18T08:09:15;4.57;;;1.73;;
31966;SDS011;18496;52.042;6.812;2022-07-18T08:11:19;3.55;;;1.50;;
31966;SDS011;18496;52.042;6.812;2022-07-18T08:13:22;8.10;;;1.92;;
31966;SDS011;18496;52.042;6.812;2022-07-18T08:15:26;3.33;;;1.60;;
31966;SDS011;18496;52.042;6.812;2022-07-18T08:17:30;7.22;;;1.65;;
31966;SDS011;18496;52.042;6.812;2022-07-18T08:19:34;6.47;;;1.70;;
31966;SDS011;18496;52.042;6.812;2022-07-18T08:21:37;11.48;;;1.90;;
31966;SDS011;18496;52.042;6.812;2022-07-18T08:23:41;4.70;;;1.60;;
31966;SDS011;18496;52.042;6.812;2022-07-18T08:25:52;8.18;;;1.60;;
31966;SDS011;18496;52.042;6.812;2022-07-18T08:27:59;7.30;;;1.55;;
31966;SDS011;18496;52.042;6.812;2022-07-18T08:30:04;3.33;;;1.80;;
31966;SDS011;18496;52.042;6.812;2022-07-18T08:32:11;1.95;;;1.35;;
31966;SDS011;18496;52.042;6.812;2022-07-18T08:34:16;6.70;;;1.65;;
31966;SDS011;18496;52.042;6.812;2022-07-18T08:36:20;7.53;;;1.70;;
31966;SDS011;18496;52.042;6.812;2022-07-18T08:38:23;6.50;;;1.75;;
31966;SDS011;18496;52.042;6.812;2022-07-18T08:40:27;4.47;;;1.73;;
31966;SDS011;18496;52.042;6.812;2022-07-18T08:42:32;3.83;;;1.55;;
31966;SDS011;18496;52.042;6.812;2022-07-18T08:44:36;4.13;;;1.58;;
31966;SDS011;18496;52.042;6.812;2022-07-18T08:46:50;5.13;;;1.23;;
31966;SDS011;18496;52.042;6.812;2022-07-18T08:48:54;3.17;;;1.38;;
31966;SDS011;18496;52.042;6.812;2022-07-18T08:50:59;5.15;;;1.67;;
31966;SDS011;18496;52.042;6.812;2022-07-18T08:53:03;7.90;;;1.80;;
31966;SDS011;18496;52.042;6.812;2022-07-18T08:55:07;6.28;;;2.03;;
31966;SDS011;18496;52.042;6.812;2022-07-18T08:57:11;6.05;;;2.03;;
31966;SDS011;18496;52.042;6.812;2022-07-18T08:59:15;6.45;;;2.10;;
31966;SDS011;18496;52.042;6.812;2022-07-18T09:01:19;5.57;;;1.73;;
31966;SDS011;18496;52.042;6.812;2022-07-18T09:03:23;6.07;;;1.58;;
31966;SDS011;18496;52.042;6.812;2022-07-18T09:05:27;9.40;;;1.52;;
31966;SDS011;18496;52.042;6.812;2022-07-18T09:07:33;5.45;;;1.70;;
31966;SDS011;18496;52.042;6.812;2022-07-18T09:09:40;6.20;;;1.70;;
31966;SDS011;18496;52.042;6.812;2022-07-18T09:11:56;6.78;;;1.80;;
31966;SDS011;18496;52.042;6.812;2022-07-18T09:14:28;5.95;;;1.60;;
31966;SDS011;18496;52.042;6.812;2022-07-18T09:16:33;2.25;;;1.38;;
31966;SDS011;18496;52.042;6.812;2022-07-18T09:20:56;5.20;;;2.03;;
31966;SDS011;18496;52.042;6.812;2022-07-18T09:23:09;4.93;;;1.90;;
31966;SDS011;18496;52.042;6.812;2022-07-18T09:25:17;4.53;;;1.95;;
31966;SDS011;18496;52.042;6.812;2022-07-18T09:29:35;7.43;;;2.00;;
31966;SDS011;18496;52.042;6.812;2022-07-18T09:31:39;5.28;;;1.83;;
31966;SDS011;18496;52.042;6.812;2022-07-18T09:33:55;4.03;;;2.22;;
31966;SDS011;18496;52.042;6.812;2022-07-18T09:36:02;5.65;;;2.20;;
31966;SDS011;18496;52.042;6.812;2022-07-18T09:38:10;10.45;;;1.75;;
31966;SDS011;18496;52.042;6.812;2022-07-18T09:40:16;10.15;;;2.00;;
31966;SDS011;18496;52.042;6.812;2022-07-18T09:42:27;7.18;;;1.95;;
31966;SDS011;18496;52.042;6.812;2022-07-18T09:44:31;3.90;;;1.75;;
31966;SDS011;18496;52.042;6.812;2022-07-18T09:46:37;7.72;;;2.00;;
31966;SDS011;18496;52.042;6.812;2022-07-18T09:49:09;3.83;;;1.90;;
31966;SDS011;18496;52.042;6.812;2022-07-18T09:51:14;4.65;;;1.60;;
31966;SDS011;18496;52.042;6.812;2022-07-18T09:53:24;4.22;;;1.70;;
31966;SDS011;18496;52.042;6.812;2022-07-18T09:55:48;4.25;;;1.92;;
31966;SDS011;18496;52.042;6.812;2022-07-18T09:58:19;4.18;;;1.60;;
31966;SDS011;18496;52.042;6.812;2022-07-18T10:00:33;6.03;;;2.30;;
31966;SDS011;18496;52.042;6.812;2022-07-18T10:02:38;5.18;;;1.85;;
31966;SDS011;18496;52.042;6.812;2022-07-18T10:04:43;3.05;;;1.65;;
31966;SDS011;18496;52.042;6.812;2022-07-18T10:06:47;4.97;;;1.40;;
31966;SDS011;18496;52.042;6.812;2022-07-18T10:08:51;6.45;;;2.05;;
31966;SDS011;18496;52.042;6.812;2022-07-18T10:11:02;7.22;;;2.38;;
31966;SDS011;18496;52.042;6.812;2022-07-18T10:13:08;6.03;;;2.33;;
31966;SDS011;18496;52.042;6.812;2022-07-18T10:15:12;5.75;;;1.90;;
31966;SDS011;18496;52.042;6.812;2022-07-18T10:17:15;5.55;;;1.98;;
31966;SDS011;18496;52.042;6.812;2022-07-18T10:19:21;7.65;;;1.55;;
31966;SDS011;18496;52.042;6.812;2022-07-18T10:21:24;2.53;;;1.88;;
31966;SDS011;18496;52.042;6.812;2022-07-18T10:23:42;5.70;;;2.17;;
31966;SDS011;18496;52.042;6.812;2022-07-18T10:28:12;6.00;;;2.33;;
31966;SDS011;18496;52.042;6.812;2022-07-18T10:30:16;5.45;;;2.10;;
31966;SDS011;18496;52.042;6.812;2022-07-18T10:32:31;9.20;;;1.90;;
31966;SDS011;18496;52.042;6.812;2022-07-18T10:34:37;7.40;;;2.05;;
31966;SDS011;18496;52.042;6.812;2022-07-18T10:39:15;5.00;;;2.20;;
31966;SDS011;18496;52.042;6.812;2022-07-18T10:41:23;7.30;;;1.95;;
31966;SDS011;18496;52.042;6.812;2022-07-18T10:45:53;6.78;;;2.20;;
31966;SDS011;18496;52.042;6.812;2022-07-18T10:47:56;3.80;;;2.22;;
31966;SDS011;18496;52.042;6.812;2022-07-18T10:50:01;4.22;;;1.90;;
31966;SDS011;18496;52.042;6.812;2022-07-18T10:52:06;5.78;;;1.88;;
31966;SDS011;18496;52.042;6.812;2022-07-18T10:54:31;8.02;;;2.17;;
31966;SDS011;18496;52.042;6.812;2022-07-18T10:58:39;5.90;;;2.17;;
31966;SDS011;18496;52.042;6.812;2022-07-18T11:00:43;8.32;;;2.35;;
31966;SDS011;18496;52.042;6.812;2022-07-18T11:05:31;9.63;;;1.98;;
31966;SDS011;18496;52.042;6.812;2022-07-18T11:07:34;9.05;;;2.35;;
31966;SDS011;18496;52.042;6.812;2022-07-18T11:09:41;4.65;;;2.33;;
31966;SDS011;18496;52.042;6.812;2022-07-18T11:17:03;5.13;;;2.47;;
31966;SDS011;18496;52.042;6.812;2022-07-18T11:21:27;4.55;;;2.08;;
31966;SDS011;18496;52.042;6.812;2022-07-18T11:23:41;12.10;;;2.50;;
31966;SDS011;18496;52.042;6.812;2022-07-18T11:28:01;6.38;;;2.50;;
31966;SDS011;18496;52.042;6.812;2022-07-18T11:30:10;3.17;;;2.10;;
31966;SDS011;18496;52.042;6.812;2022-07-18T11:32:20;3.10;;;2.08;;
31966;SDS011;18496;52.042;6.812;2022-07-18T11:34:24;4.15;;;2.35;;
31966;SDS011;18496;52.042;6.812;2022-07-18T11:36:30;7.30;;;2.03;;
31966;SDS011;18496;52.042;6.812;2022-07-18T11:38:35;6.10;;;2.58;;
31966;SDS011;18496;52.042;6.812;2022-07-18T11:40:50;6.57;;;1.98;;
31966;SDS011;18496;52.042;6.812;2022-07-18T11:42:55;7.47;;;2.85;;
31966;SDS011;18496;52.042;6.812;2022-07-18T11:44:59;5.82;;;2.10;;
31966;SDS011;18496;52.042;6.812;2022-07-18T11:47:04;4.47;;;2.42;;
31966;SDS011;18496;52.042;6.812;2022-07-18T11:49:10;7.35;;;2.15;;
31966;SDS011;18496;52.042;6.812;2022-07-18T11:51:14;5.22;;;1.92;;
31966;SDS011;18496;52.042;6.812;2022-07-18T11:53:20;7.18;;;2.00;;
31966;SDS011;18496;52.042;6.812;2022-07-18T11:55:34;3.80;;;2.08;;
31966;SDS011;18496;52.042;6.812;2022-07-18T11:57:38;4.13;;;2.22;;
31966;SDS011;18496;52.042;6.812;2022-07-18T11:59:42;4.30;;;1.85;;
31966;SDS011;18496;52.042;6.812;2022-07-18T12:01:47;4.75;;;2.25;;
31966;SDS011;18496;52.042;6.812;2022-07-18T12:03:59;4.35;;;2.15;;
31966;SDS011;18496;52.042;6.812;2022-07-18T12:06:09;4.07;;;2.15;;
31966;SDS011;18496;52.042;6.812;2022-07-18T12:10:29;9.10;;;2.03;;
31966;SDS011;18496;52.042;6.812;2022-07-18T12:12:35;4.57;;;2.00;;
31966;SDS011;18496;52.042;6.812;2022-07-18T12:14:40;8.50;;;1.88;;
31966;SDS011;18496;52.042;6.812;2022-07-18T12:16:48;4.20;;;2.08;;
31966;SDS011;18496;52.042;6.812;2022-07-18T12:21:08;2.95;;;2.13;;
31966;SDS011;18496;52.042;6.812;2022-07-18T12:23:12;14.88;;;1.75;;
31966;SDS011;18496;52.042;6.812;2022-07-18T12:25:16;8.07;;;1.80;;
31966;SDS011;18496;52.042;6.812;2022-07-18T12:27:21;4.93;;;1.70;;
31966;SDS011;18496;52.042;6.812;2022-07-18T12:29:25;3.55;;;1.88;;
31966;SDS011;18496;52.042;6.812;2022-07-18T12:31:39;7.40;;;2.10;;
31966;SDS011;18496;52.042;6.812;2022-07-18T12:33:44;2.90;;;1.83;;
31966;SDS011;18496;52.042;6.812;2022-07-18T12:36:25;7.22;;;1.83;;
31966;SDS011;18496;52.042;6.812;2022-07-18T12:38:29;3.65;;;1.95;;
31966;SDS011;18496;52.042;6.812;2022-07-18T12:42:56;5.60;;;2.70;;
31966;SDS011;18496;52.042;6.812;2022-07-18T12:45:10;5.53;;;2.20;;
31966;SDS011;18496;52.042;6.812;2022-07-18T12:47:14;5.13;;;2.53;;
31966;SDS011;18496;52.042;6.812;2022-07-18T12:49:18;5.13;;;2.72;;
31966;SDS011;18496;52.042;6.812;2022-07-18T12:51:28;5.30;;;2.55;;
31966;SDS011;18496;52.042;6.812;2022-07-18T12:53:34;5.43;;;2.17;;
31966;SDS011;18496;52.042;6.812;2022-07-18T12:55:40;4.22;;;2.00;;
31966;SDS011;18496;52.042;6.812;2022-07-18T12:57:44;7.80;;;2.20;;
31966;SDS011;18496;52.042;6.812;2022-07-18T12:59:47;9.75;;;2.40;;
31966;SDS011;18496;52.042;6.812;2022-07-18T13:01:52;4.72;;;2.53;;
31966;SDS011;18496;52.042;6.812;2022-07-18T13:03:58;8.15;;;5.25;;
31966;SDS011;18496;52.042;6.812;2022-07-18T13:06:02;4.78;;;2.22;;
31966;SDS011;18496;52.042;6.812;2022-07-18T13:08:06;2.30;;;1.90;;